Time;durP1;ratioP1;P1;durP2;ratioP2;P2;SDS_P1;SDS_P2;PMS_P1;PMS_P2;Temp;Humidity;BMP_temperature;BMP_pressure;BME280_temperature;BME280_humidity;BME280_pressure;Samples;Min_cycle;Max_cycle;Signal;HPM_P1;HPM_P2
2022/12/03 00:01:56;;;;;;;0.10;0.10;;;1.70;99.90;;;1.49;100.00;100455.63;5043093;28;20231;-76
2022/12/03 00:04:23;;;;;;;0.10;0.10;;;1.70;99.90;;;1.49;100.00;100453.03;5046227;28;20698;-76
2022/12/03 00:06:50;;;;;;;0.25;0.25;;;1.90;99.90;;;1.48;100.00;100452.97;5043139;28;20287;-77
2022/12/03 00:09:17;;;;;;;0.10;0.10;;;1.80;99.90;;;1.50;100.00;100459.13;5029408;28;20258;-75
2022/12/03 00:11:44;;;;;;;0.10;0.10;;;1.80;99.90;;;1.47;100.00;100459.88;5033651;28;20658;-76
2022/12/03 00:14:11;;;;;;;0.10;0.10;;;1.70;99.90;;;1.50;100.00;100461.75;5040493;28;20314;-78
2022/12/03 00:16:38;;;;;;;0.35;0.35;;;2.10;99.90;;;1.52;100.00;100458.38;5043935;28;20312;-75
2022/12/03 00:19:06;;;;;;;0.10;0.10;;;1.70;99.90;;;1.46;100.00;100459.81;5033822;28;20770;-75
2022/12/03 00:21:33;;;;;;;0.15;0.15;;;1.70;99.90;;;1.50;100.00;100459.13;5047268;28;20244;-76
2022/12/03 00:24:00;;;;;;;0.10;0.10;;;1.70;99.90;;;1.48;100.00;100456.47;5044910;28;20256;-76
2022/12/03 00:26:27;;;;;;;0.10;0.10;;;1.70;99.90;;;1.43;100.00;100451.84;5048441;28;20246;-76
2022/12/03 00:28:56;;;;;;;0.10;0.10;;;2.00;99.90;;;1.49;100.00;100457.34;5029219;28;20251;-75
2022/12/03 00:31:24;;;;;;;0.10;0.10;;;1.70;99.90;;;1.48;100.00;100461.66;5046730;28;20283;-76
2022/12/03 00:33:52;;;;;;;0.10;0.10;;;1.80;99.90;;;1.45;100.00;100455.44;5047701;28;20233;-75
2022/12/03 00:36:19;;;;;;;0.10;0.10;;;1.80;99.90;;;1.52;100.00;100466.19;5038700;28;20265;-76
2022/12/03 00:38:46;;;;;;;0.10;0.10;;;1.80;99.90;;;1.51;100.00;100461.81;5041980;28;20317;-76
2022/12/03 00:41:13;;;;;;;0.15;0.15;;;1.90;99.90;;;1.48;100.00;100453.84;5043169;28;20238;-76
2022/12/03 00:43:40;;;;;;;0.10;0.10;;;1.70;99.90;;;1.49;100.00;100459.97;5042817;28;20320;-76
2022/12/03 00:46:07;;;;;;;0.20;0.20;;;1.70;99.90;;;1.44;100.00;100459.75;5043181;28;20310;-75
2022/12/03 00:48:34;;;;;;;0.10;0.10;;;;;;;1.52;100.00;100468.81;5013275;28;20231;-76
2022/12/03 00:51:01;;;;;;;0.13;0.13;;;1.70;99.90;;;1.50;100.00;100460.03;5029322;28;20269;-76
2022/12/03 00:53:29;;;;;;;0.10;0.10;;;1.90;99.90;;;1.53;100.00;100467.09;5042068;28;20249;-76
2022/12/03 00:55:56;;;;;;;0.10;0.10;;;2.10;99.90;;;1.50;100.00;100459.13;5047123;28;20310;-76
2022/12/03 00:58:23;;;;;;;0.10;0.10;;;1.70;99.90;;;1.46;100.00;100458.09;5052115;28;20690;-74
2022/12/03 01:00:50;;;;;;;0.65;0.65;;;1.70;99.90;;;1.50;100.00;100460.03;5052067;28;20333;-76
2022/12/03 01:03:17;;;;;;;0.10;0.10;;;2.00;99.90;;;1.47;100.00;100456.38;5046698;28;20336;-76
2022/12/03 01:05:44;;;;;;;0.10;0.10;;;1.70;99.90;;;1.48;100.00;100460.78;5049109;28;20238;-76
2022/12/03 01:08:11;;;;;;;0.20;0.20;;;1.70;99.90;;;1.51;100.00;100459.19;5047690;28;20261;-76
2022/12/03 01:10:38;;;;;;;0.10;0.10;;;1.70;99.90;;;1.52;100.00;100465.31;5051672;28;20230;-76
2022/12/03 01:13:05;;;;;;;0.10;0.10;;;1.70;99.90;;;1.48;100.00;100466.00;5047024;28;20309;-74
2022/12/03 01:15:32;;;;;;;0.10;0.10;;;1.90;99.90;;;1.44;100.00;100461.47;5031125;28;20321;-75
2022/12/03 01:17:59;;;;;;;0.10;0.10;;;2.00;99.90;;;1.44;100.00;100464.06;5029732;28;20227;-76
2022/12/03 01:20:26;;;;;;;0.10;0.10;;;1.90;99.90;;;1.52;100.00;100478.34;5037668;28;20303;-76
2022/12/03 01:22:53;;;;;;;0.10;0.10;;;2.60;99.90;;;1.51;100.00;100481.75;5051829;28;20317;-77
2022/12/03 01:25:20;;;;;;;0.10;0.10;;;2.20;99.90;;;1.50;100.00;100474.78;5047103;28;20314;-76
2022/12/03 01:27:47;;;;;;;0.10;0.10;;;1.70;99.90;;;1.51;100.00;100487.88;5044199;28;20321;-76
2022/12/03 01:30:15;;;;;;;0.10;0.10;;;1.90;99.90;;;1.49;100.00;100484.31;5049331;28;20219;-76
2022/12/03 01:32:42;;;;;;;0.10;0.10;;;1.70;99.90;;;1.52;100.00;100483.56;5041671;28;20245;-76
2022/12/03 01:35:09;;;;;;;0.10;0.10;;;1.80;99.90;;;1.48;100.00;100484.22;5043549;28;20311;-76
2022/12/03 01:37:36;;;;;;;0.10;0.10;;;2.20;99.90;;;1.50;100.00;100486.09;5043594;28;20313;-76
2022/12/03 01:40:04;;;;;;;0.10;0.10;;;1.60;99.90;;;1.53;100.00;100493.16;5046798;28;20232;-76
2022/12/03 01:42:36;;;;;;;0.10;0.10;;;1.70;99.90;;;1.53;100.00;100494.03;5032373;28;20266;-76
2022/12/03 01:45:03;;;;;;;0.10;0.10;;;1.70;99.90;;;1.54;100.00;100493.22;5042035;28;20287;-76
2022/12/03 01:47:34;;;;;;;0.10;0.10;;;1.80;99.90;;;1.51;100.00;100490.47;5041095;28;20386;-77
2022/12/03 01:50:22;;;;;;;0.30;0.30;;;1.70;99.90;;;1.56;100.00;100498.50;5032261;28;20279;-76
2022/12/03 01:52:49;;;;;;;0.20;0.20;;;1.80;99.90;;;1.52;100.00;100489.66;5021104;28;20230;-76
2022/12/03 01:55:26;;;;;;;0.10;0.10;;;1.70;99.90;;;1.52;100.00;100489.66;5018952;28;20254;-77
2022/12/03 01:58:01;;;;;;;0.10;0.10;;;1.70;99.90;;;1.52;100.00;100489.66;5032236;28;20230;-76
2022/12/03 02:00:29;;;;;;;0.10;0.10;;;1.70;99.90;;;1.47;100.00;100493.75;5032281;28;20301;-76
2022/12/03 02:03:01;;;;;;;0.20;0.20;;;1.90;99.90;;;1.58;100.00;100505.56;5032006;28;20230;-77
2022/12/03 02:05:32;;;;;;;0.10;0.10;;;1.70;99.90;;;1.57;100.00;100513.31;5029686;28;20258;-75
2022/12/03 02:08:00;;;;;;;0.10;0.10;;;1.80;99.90;;;1.54;100.00;100511.47;5045306;28;20313;-76
2022/12/03 02:10:33;;;;;;;0.20;0.20;;;2.00;99.90;;;1.51;100.00;100508.72;5049298;28;20233;-77
2022/12/03 02:13:06;;;;;;;0.20;0.20;;;1.90;99.90;;;1.55;100.00;100515.84;5031265;28;20261;-76
2022/12/03 02:15:35;;;;;;;0.10;0.10;;;1.70;99.90;;;1.52;100.00;100510.50;5049629;28;20313;-76
2022/12/03 02:18:02;;;;;;;0.10;0.10;;;2.00;99.90;;;1.56;100.00;100511.53;5020197;28;20310;-76
2022/12/03 02:20:37;;;;;;;0.10;0.10;;;1.80;99.90;;;1.49;100.00;100507.75;5024064;28;20698;-76
2022/12/03 02:23:13;;;;;;;0.15;0.15;;;1.70;99.90;;;1.56;100.00;100514.16;5033354;28;20416;-77
2022/12/03 02:25:40;;;;;;;0.10;0.10;;;1.80;99.90;;;1.52;100.00;100510.50;5033283;28;20321;-77
2022/12/03 02:28:08;;;;;;;0.10;0.10;;;1.70;99.90;;;1.48;100.00;100503.38;5009806;28;20235;-76
2022/12/03 02:30:35;;;;;;;0.10;0.10;;;1.90;99.90;;;1.51;100.00;100507.81;5030286;28;20779;-75
2022/12/03 02:33:03;;;;;;;0.10;0.10;;;1.90;99.90;;;1.55;100.00;100513.25;5031241;28;20258;-77
2022/12/03 02:35:34;;;;;;;0.10;0.10;;;1.80;99.90;;;1.54;100.00;100507.97;5030592;28;20231;-76
2022/12/03 02:38:17;;;;;;;0.10;0.10;;;2.10;99.90;;;1.49;100.00;100507.75;5029894;28;20265;-77
2022/12/03 02:40:47;;;;;;;0.10;0.10;;;1.70;99.90;;;1.51;100.00;100513.03;5023005;28;20302;-76
2022/12/03 02:43:16;;;;;;;0.10;0.10;;;2.50;99.90;;;1.51;100.00;100502.63;5022935;28;20314;-76
2022/12/03 02:45:48;;;;;;;0.10;0.10;;;1.90;99.90;;;1.51;100.00;100506.13;5026480;28;20262;-76
2022/12/03 02:48:36;;;;;;;0.15;0.15;;;1.70;99.90;;;1.50;100.00;100519.06;5023442;28;20222;-76
2022/12/03 02:51:07;;;;;;;0.10;0.10;;;1.70;99.90;;;1.51;100.00;100513.03;5049006;28;20249;-76
2022/12/03 02:53:45;;;;;;;0.13;0.13;;;1.70;99.90;;;1.58;100.00;100522.94;5035060;28;20317;-76
2022/12/03 02:56:20;;;;;;;0.10;0.10;;;1.80;99.90;;;1.53;100.00;100508.78;5039890;28;20226;-76
2022/12/03 02:58:51;;;;;;;0.10;0.10;;;2.20;99.90;;;1.52;100.00;100510.50;5031193;28;20233;-76
2022/12/03 03:01:18;;;;;;;0.10;0.10;;;1.70;99.90;;;1.57;100.00;100519.44;5031789;28;20262;-77
2022/12/03 03:03:47;;;;;;;0.10;0.10;;;1.70;99.90;;;1.59;100.00;100528.22;5017499;28;20238;-75
2022/12/03 03:06:17;;;;;;;0.10;0.10;;;2.00;99.90;;;1.56;100.00;100517.66;5027780;28;20255;-75
2022/12/03 03:08:45;;;;;;;0.35;0.35;;;2.00;99.90;;;1.55;100.00;100515.84;5031974;28;20234;-76
2022/12/03 03:11:12;;;;;;;0.10;0.10;;;1.80;99.90;;;1.55;100.00;100517.56;5016506;28;20314;-76
2022/12/03 03:13:39;;;;;;;0.10;0.10;;;1.90;99.90;;;1.52;100.00;100517.44;5021067;28;20318;-75
2022/12/03 03:16:07;;;;;;;0.10;0.10;;;1.90;99.90;;;1.50;100.00;100517.34;5015063;28;20323;-75
2022/12/03 03:18:35;;;;;;;0.10;0.10;;;1.70;99.90;;;1.52;100.00;100522.63;5010745;28;20236;-76
2022/12/03 03:21:03;;;;;;;0.10;0.10;;;1.90;99.90;;;1.51;100.00;100516.53;5023265;28;20317;-76
2022/12/03 03:23:30;;;;;;;0.22;0.22;;;1.70;99.90;;;1.53;100.00;100517.50;5026532;28;20242;-76
2022/12/03 03:26:10;;;;;;;0.10;0.10;;;1.80;99.90;;;1.56;100.00;100524.56;5048943;28;20252;-75
2022/12/03 03:28:42;;;;;;;0.10;0.10;;;1.70;99.90;;;1.54;100.00;100524.50;5048209;28;20253;-76
2022/12/03 03:31:11;;;;;;;0.20;0.20;;;1.80;99.90;;;1.59;100.00;100522.09;5027048;28;20277;-75
2022/12/03 03:33:42;;;;;;;0.10;0.10;;;1.80;99.90;;;1.49;100.00;100520.78;5023262;28;20234;-75
2022/12/03 03:36:11;;;;;;;0.10;0.10;;;1.80;99.90;;;1.50;100.00;100521.69;5043660;28;20310;-75
2022/12/03 03:38:39;;;;;;;0.10;0.10;;;1.70;99.90;;;1.51;100.00;100523.47;5043021;28;20351;-76
2022/12/03 03:41:08;;;;;;;0.15;0.15;;;1.80;99.90;;;1.54;100.00;100527.09;5028375;28;20250;-75
2022/12/03 03:43:41;;;;;;;0.10;0.10;;;1.80;99.90;;;1.50;100.00;100522.56;5045816;28;20260;-75
2022/12/03 03:46:09;;;;;;;0.10;0.10;;;1.80;99.90;;;1.52;100.00;100526.13;5024448;28;20261;-76
2022/12/03 03:48:37;;;;;;;0.20;0.20;;;2.30;99.90;;;1.53;100.00;100521.81;5018494;28;20254;-76
2022/12/03 03:51:08;;;;;;;0.17;0.17;;;1.70;99.90;;;1.51;100.00;100524.34;5022107;28;20226;-77
2022/12/03 03:53:42;;;;;;;0.10;0.10;;;1.70;99.90;;;1.52;100.00;100525.25;5048490;28;20227;-75
2022/12/03 03:56:10;;;;;;;0.10;0.10;;;2.10;99.90;;;1.49;100.00;100520.78;5030834;28;20250;-76
2022/12/03 03:58:37;;;;;;;0.10;0.10;;;1.90;99.90;;;1.50;100.00;100521.69;5031734;28;20234;-75
2022/12/03 04:01:05;;;;;;;0.10;0.10;;;1.70;99.90;;;1.55;100.00;100525.38;5032151;28;20280;-76
2022/12/03 04:03:33;;;;;;;0.20;0.20;;;1.80;99.90;;;1.54;100.00;100531.41;5046697;28;20237;-76
2022/12/03 04:06:00;;;;;;;0.20;0.20;;;1.80;99.90;;;1.49;100.00;100519.91;5044830;28;20313;-76
2022/12/03 04:08:27;;;;;;;0.10;0.10;;;1.70;99.90;;;1.46;100.00;100518.03;5026930;28;20230;-76
2022/12/03 04:13:40;;;;;;;0.10;0.10;;;1.70;99.90;;;1.46;100.00;100514.53;5041477;28;20261;-76
2022/12/03 04:16:07;;;;;;;0.10;0.10;;;1.70;99.90;;;1.52;100.00;100525.25;5014862;28;20280;-76
2022/12/03 04:18:43;;;;;;;0.10;0.10;;;1.70;99.90;;;1.53;100.00;100524.44;5038875;28;20385;-76
2022/12/03 04:24:07;;;;;;;1.10;1.10;;;1.70;99.90;;;1.54;100.00;100523.59;5043508;28;20236;-78
2022/12/03 04:29:21;;;;;;;0.47;0.47;;;1.80;99.90;;;1.56;100.00;100521.97;5036367;28;20747;-76
2022/12/03 04:37:20;;;;;;;0.10;0.10;;;1.70;99.90;;;1.49;100.00;100510.38;5045503;28;20264;-76
2022/12/03 04:39:47;;;;;;;0.10;0.10;;;1.70;99.90;;;1.51;100.00;100510.44;5052993;28;20280;-77
2022/12/03 04:42:14;;;;;;;0.10;0.10;;;1.80;99.90;;;1.49;100.00;100514.69;5052037;28;20227;-76
2022/12/03 04:44:42;;;;;;;0.10;0.10;;;1.80;99.90;;;1.50;100.00;100514.75;5047022;28;20334;-77
2022/12/03 04:47:14;;;;;;;0.52;0.52;;;1.80;99.90;;;1.52;100.00;100512.22;5043775;28;20313;-76
2022/12/03 04:49:44;;;;;;;0.10;0.10;;;1.90;99.90;;;1.52;100.00;100509.63;5048977;28;20219;-74
2022/12/03 04:52:14;;;;;;;0.30;0.30;;;1.70;99.90;;;1.49;100.00;100506.88;5048681;28;20317;-76
2022/12/03 04:54:41;;;;;;;0.10;0.10;;;1.80;99.90;;;1.54;100.00;100514.06;5027361;28;20259;-77
2022/12/03 04:57:09;;;;;;;0.10;0.10;;;1.80;99.90;;;1.55;100.00;100520.19;5039911;28;20313;-77
2022/12/03 04:59:38;;;;;;;0.20;0.20;;;2.00;99.90;;;1.54;100.00;100515.78;5048600;28;20261;-76
2022/12/03 05:02:06;;;;;;;0.30;0.30;;;1.70;99.90;;;1.54;100.00;100521.00;5050481;28;20305;-77
2022/12/03 05:04:33;;;;;;;0.10;0.10;;;1.90;99.90;;;1.54;100.00;100518.41;5063426;28;20261;-77
2022/12/03 05:07:01;;;;;;;0.10;0.10;;;2.00;99.90;;;1.53;100.00;100519.22;5052111;28;20234;-76
2022/12/03 05:09:28;;;;;;;0.20;0.20;;;2.10;99.90;;;1.56;100.00;100525.47;5051780;28;20226;-77
2022/12/03 05:11:55;;;;;;;0.20;0.20;;;2.50;99.90;;;1.54;100.00;100529.72;5030683;28;20254;-76
2022/12/03 05:14:22;;;;;;;0.82;0.82;;;1.80;99.90;;;1.49;100.00;100520.78;5031015;28;20235;-77
2022/12/03 05:16:49;;;;;;;0.10;0.10;;;1.80;99.90;;;1.54;100.00;100524.50;5051047;28;20316;-77
2022/12/03 05:19:16;;;;;;;0.10;0.10;;;1.90;99.90;;;1.51;100.00;100515.66;5040351;28;20226;-75
2022/12/03 05:21:43;;;;;;;0.30;0.30;;;1.70;99.90;;;1.57;100.00;100526.34;5050809;28;20233;-76
2022/12/03 05:24:10;;;;;;;0.10;0.10;;;1.70;99.90;;;1.54;100.00;100521.00;5045034;28;20321;-76
2022/12/03 05:26:37;;;;;;;0.10;0.10;;;1.70;99.90;;;1.53;100.00;100521.81;5050166;28;20346;-76
2022/12/03 05:29:04;;;;;;;0.20;0.20;;;2.30;99.90;;;1.52;100.00;100528.75;5047256;28;20416;-76
2022/12/03 05:31:31;;;;;;;0.10;0.10;;;1.80;99.90;;;1.54;100.00;100524.50;5038805;28;20293;-77
2022/12/03 05:33:58;;;;;;;0.10;0.10;;;2.00;99.90;;;1.51;100.00;100518.25;5045132;28;20246;-77
2022/12/03 05:36:25;;;;;;;0.30;0.30;;;1.70;99.90;;;1.47;100.00;100511.13;5045006;28;20357;-76
2022/12/03 05:38:52;;;;;;;0.10;0.10;;;1.70;99.90;;;1.52;100.00;100520.94;5029757;28;20707;-75
2022/12/03 05:44:05;;;;;;;0.10;0.10;;;1.70;99.90;;;1.51;100.00;100518.25;5045475;28;20306;-76
2022/12/03 05:46:32;;;;;;;0.30;0.30;;;1.70;99.90;;;1.50;100.00;100519.97;5042952;28;20298;-77
2022/12/03 05:48:59;;;;;;;0.10;0.10;;;1.70;99.90;;;1.45;100.00;100512.75;5045997;28;20230;-76
2022/12/03 05:51:27;;;;;;;0.10;0.10;;;1.90;99.90;;;1.47;100.00;100516.31;5045627;28;20234;-77
2022/12/03 05:53:54;;;;;;;0.10;0.10;;;1.70;99.90;;;1.49;100.00;100518.19;5023740;28;20234;-76
2022/12/03 05:56:21;;;;;;;0.10;0.10;;;2.10;99.90;;;1.52;100.00;100520.94;5046935;28;20274;-77
2022/12/03 05:58:48;;;;;;;0.10;0.10;;;1.70;99.90;;;1.53;100.00;100521.81;5049992;28;20314;-77
2022/12/03 06:01:15;;;;;;;0.15;0.15;;;1.70;99.90;;;1.50;100.00;100519.06;5041895;28;20246;-77
2022/12/03 06:03:42;;;;;;;0.28;0.28;;;1.80;99.90;;;1.50;100.00;100525.19;5044885;28;20277;-77
2022/12/03 06:06:09;;;;;;;0.20;0.20;;;2.10;99.90;;;1.50;100.00;100526.88;5033670;28;20272;-77
2022/12/03 06:08:36;;;;;;;0.10;0.10;;;1.90;99.90;;;1.58;100.00;100535.97;5051795;28;20229;-77
2022/12/03 06:11:03;;;;;;;0.10;0.10;;;1.80;99.90;;;1.52;100.00;100522.63;4478604;23;15094034;-76
2022/12/03 06:13:30;;;;;;;0.10;0.10;;;1.70;99.90;;;1.50;100.00;100519.06;4960249;28;20554;-77
2022/12/03 06:15:57;;;;;;;0.10;0.10;;;1.80;99.90;;;1.48;100.00;100511.19;4967034;28;20275;-76
2022/12/03 06:18:25;;;;;;;0.10;0.10;;;1.70;99.90;;;1.51;100.00;100520.84;4955378;28;20232;-76
2022/12/03 06:20:52;;;;;;;0.85;0.85;;;1.70;99.90;;;1.49;100.00;100518.19;4955418;28;20324;-77
2022/12/03 06:23:19;;;;;;;0.17;0.17;;;1.70;99.90;;;1.52;100.00;100523.53;4970748;28;20312;-81
2022/12/03 06:25:46;;;;;;;0.82;0.82;;;2.00;99.90;;;1.54;100.00;100524.50;4969941;28;20687;-75
2022/12/03 06:28:13;;;;;;;0.57;0.57;;;1.80;99.90;;;1.49;100.00;100518.19;4967479;28;20260;-75
2022/12/03 06:30:40;;;;;;;0.20;0.20;;;2.00;99.90;;;1.53;100.00;100516.59;4979560;28;20328;-75
2022/12/03 06:33:07;;;;;;;0.10;0.10;;;1.80;99.90;;;1.52;100.00;100523.53;4984741;28;20237;-74
2022/12/03 06:35:34;;;;;;;0.10;0.10;;;1.70;99.90;;;1.52;100.00;100513.13;4972767;28;20260;-74
2022/12/03 06:38:01;;;;;;;0.22;0.22;;;1.70;99.90;;;1.54;100.00;100515.78;4971632;28;20217;-77
2022/12/03 06:40:28;;;;;;;0.10;0.10;;;1.70;99.90;;;1.54;100.00;100519.28;4971381;28;20249;-75
2022/12/03 06:42:55;;;;;;;0.10;0.10;;;1.70;99.90;;;1.50;100.00;100519.97;4971284;28;20305;-74
2022/12/03 06:45:22;;;;;;;0.10;0.10;;;2.10;99.90;;;1.54;100.00;100523.59;4977092;28;20235;-77
2022/12/03 06:47:48;;;;;;;0.10;0.10;;;2.50;99.90;;;1.52;100.00;100515.72;4966342;28;20233;-76
2022/12/03 06:50:16;;;;;;;0.10;0.10;;;1.70;99.90;;;1.52;100.00;100528.75;4970379;28;20232;-76
2022/12/03 06:52:43;;;;;;;0.10;0.10;;;1.70;99.90;;;1.53;100.00;100530.53;4970062;28;20291;-75
2022/12/03 06:55:10;;;;;;;0.10;0.10;;;1.90;99.90;;;1.55;100.00;100533.22;4967939;28;20310;-74
2022/12/03 06:57:37;;;;;;;0.30;0.30;;;2.50;99.90;;;1.54;100.00;100536.63;4971108;28;20241;-75
2022/12/03 07:00:07;;;;;;;0.22;0.22;;;1.90;99.90;;;1.53;100.00;100540.97;4970717;28;20228;-75
2022/12/03 07:02:35;;;;;;;0.10;0.10;;;1.70;99.90;;;1.55;100.00;100538.41;4970029;28;20689;-77
2022/12/03 07:05:02;;;;;;;0.10;0.10;;;1.80;99.90;;;1.54;100.00;100542.75;4969083;28;20237;-77
2022/12/03 07:07:29;;;;;;;0.10;0.10;;;1.80;99.90;;;1.53;100.00;100540.06;4969653;28;20320;-77
2022/12/03 07:09:56;;;;;;;4.47;0.80;;;1.70;99.90;;;1.56;100.00;100553.25;4969753;28;20257;-74
2022/12/03 07:12:23;;;;;;;0.20;0.20;;;1.80;99.90;;;1.55;100.00;100544.53;4961721;28;20239;-77
2022/12/03 07:14:50;;;;;;;0.10;0.10;;;2.00;99.90;;;1.59;100.00;100550.78;4971781;28;20236;-78
2022/12/03 07:17:18;;;;;;;0.10;0.10;;;1.80;99.90;;;1.55;100.00;100557.56;4963177;28;20307;-77
2022/12/03 07:19:45;;;;;;;0.10;0.10;;;1.80;99.90;;;1.53;100.00;100554.00;4966831;28;20252;-77
2022/12/03 07:22:12;;;;;;;0.10;0.10;;;2.00;99.90;;;1.68;100.00;100569.44;4962960;28;20232;-77
2022/12/03 07:24:39;;;;;;;0.10;0.10;;;1.80;99.90;;;1.58;100.00;100562.91;4960424;28;20225;-77
2022/12/03 07:27:07;;;;;;;1.00;1.00;;;1.80;99.90;;;1.59;100.00;100556.88;4944484;28;20328;-77
2022/12/03 07:29:34;;;;;;;0.10;0.10;;;1.80;99.90;;;1.57;100.00;100560.22;4944510;28;20253;-77
2022/12/03 07:32:01;;;;;;;0.10;0.10;;;1.80;99.90;;;1.58;100.00;100560.31;4960925;28;20320;-77
2022/12/03 07:34:28;;;;;;;0.10;0.10;;;1.80;99.90;;;1.62;100.00;100555.22;4975172;23;20338;-75
2022/12/03 07:36:55;;;;;;;0.57;0.57;;;2.10;99.90;;;1.64;100.00;100562.31;4994888;28;20223;-75
2022/12/03 07:39:22;;;;;;;0.10;0.10;;;1.80;99.90;;;1.57;100.00;100555.03;4989142;28;20228;-76
2022/12/03 07:41:49;;;;;;;0.10;0.10;;;2.30;99.90;;;1.54;100.00;100560.09;4988043;28;20260;-75
2022/12/03 07:44:16;;;;;;;0.80;0.80;;;2.80;99.90;;;1.58;100.00;100562.03;4992488;28;20256;-76
2022/12/03 07:46:43;;;;;;;0.20;0.20;;;1.80;99.90;;;1.59;100.00;100564.69;4988157;28;20235;-76
2022/12/03 07:49:11;;;;;;;0.65;0.65;;;2.30;99.90;;;1.67;100.00;100567.66;4986765;28;20697;-74
2022/12/03 07:51:38;;;;;;;0.10;0.10;;;1.80;99.90;;;1.60;100.00;100560.38;4989004;28;20244;-75
2022/12/03 07:54:05;;;;;;;0.10;0.10;;;2.00;99.90;;;1.67;100.00;100571.97;4990570;28;20259;-74
2022/12/03 07:56:32;;;;;;;0.20;0.20;;;2.30;99.90;;;1.60;100.00;100562.97;4989827;28;20677;-74
2022/12/03 07:58:59;;;;;;;0.50;0.50;;;1.80;99.90;;;1.60;100.00;100556.06;4989795;28;20231;-74
2022/12/03 08:01:26;;;;;;;0.10;0.10;;;1.80;99.90;;;1.60;100.00;100557.78;4988298;28;20232;-74
2022/12/03 08:03:53;;;;;;;0.10;0.10;;;1.80;99.90;;;1.64;100.00;100554.47;4991956;28;20235;-75
2022/12/03 08:06:20;;;;;;;0.10;0.10;;;1.80;99.90;;;1.70;100.00;100556.47;4986013;28;20300;-75
2022/12/03 08:08:47;;;;;;;0.20;0.20;;;1.90;99.90;;;1.60;100.00;100555.16;4985380;28;20238;-73
2022/12/03 08:11:14;;;;;;;0.10;0.10;;;2.10;99.90;;;1.67;100.00;100567.66;4979060;28;20295;-75
2022/12/03 08:13:41;;;;;;;0.10;0.10;;;1.90;99.90;;;1.69;100.00;100571.22;4989363;28;20343;-75
2022/12/03 08:16:17;;;;;;;0.10;0.10;;;1.90;99.90;;;1.69;100.00;100579.06;4985072;28;20319;-75
2022/12/03 08:18:46;;;;;;;1.17;0.68;;;1.90;99.90;;;1.72;100.00;100576.59;4978253;28;20231;-74
2022/12/03 08:21:17;;;;;;;0.30;0.30;;;2.00;99.90;;;1.74;100.00;100577.56;4983141;28;20619;-74
2022/12/03 08:23:44;;;;;;;0.20;0.20;;;1.90;99.90;;;1.75;100.00;100570.63;4993706;28;20323;-74
2022/12/03 08:26:32;;;;;;;0.20;0.20;;;2.20;99.90;;;1.76;100.00;100581.13;4985631;28;20252;-74
2022/12/03 08:28:59;;;;;;;0.10;0.10;;;2.00;99.90;;;1.75;100.00;100578.44;4987128;28;20252;-74
2022/12/03 08:31:26;;;;;;;0.15;0.15;;;2.00;99.90;;;1.81;100.00;100578.72;4988095;28;20267;-74
2022/12/03 08:34:20;;;;;;;0.50;0.50;;;2.10;99.90;;;1.85;100.00;100584.16;4987965;28;20282;-75
2022/12/03 08:36:52;;;;;;;0.10;0.10;;;2.00;99.90;;;1.84;100.00;100587.59;4985495;28;20220;-74
2022/12/03 08:39:24;;;;;;;0.20;0.20;;;2.20;99.90;;;1.85;100.00;100583.25;4985968;28;20281;-74
2022/12/03 08:45:26;;;;;;;0.10;0.10;;;2.10;99.90;;;1.86;100.00;100580.72;4985994;28;20256;-74
2022/12/03 08:48:18;;;;;;;0.68;0.68;;;2.10;99.90;;;1.97;100.00;100588.16;4986176;28;20279;-74
2022/12/03 08:50:45;;;;;;;0.10;0.10;;;2.10;99.90;;;2.03;100.00;100591.94;4987460;28;20376;-75
2022/12/03 08:53:12;;;;;;;0.10;0.10;;;2.20;99.90;;;2.05;100.00;100587.66;4981109;28;20298;-75
2022/12/03 08:55:46;;;;;;;0.10;0.10;;;2.30;99.90;;;1.96;100.00;100571.59;4989103;28;20259;-74
2022/12/03 08:58:43;;;;;;;0.10;0.10;;;2.20;99.90;;;1.99;100.00;100565.63;4989544;28;20247;-75
2022/12/03 09:01:09;;;;;;;0.10;0.10;;;2.20;99.90;;;1.98;100.00;100580.38;4983262;28;20257;-74
2022/12/03 09:03:54;;;;;;;0.10;0.10;;;2.20;99.90;;;1.97;100.00;100582.94;4976911;28;20236;-74
2022/12/03 09:06:22;;;;;;;0.10;0.10;;;2.20;99.90;;;2.00;100.00;100586.56;4998790;28;20222;-74
2022/12/03 09:08:49;;;;;;;0.10;0.10;;;2.20;99.90;;;2.03;100.00;100591.94;5008474;28;20325;-75
2022/12/03 09:11:16;;;;;;;0.10;0.10;;;2.20;99.90;;;2.13;100.00;100601.06;5007781;28;20270;-74
2022/12/03 09:13:43;;;;;;;0.10;0.10;;;2.30;99.90;;;2.07;100.00;100595.56;4988035;28;20318;-74
2022/12/03 09:16:10;;;;;;;0.88;0.85;;;2.50;99.90;;;2.21;100.00;100607.50;4985446;28;20261;-74
2022/12/03 09:18:37;;;;;;;0.28;0.28;;;2.30;99.90;;;2.20;100.00;100605.72;5001001;28;20258;-75
2022/12/03 09:21:05;;;;;;;0.10;0.10;;;2.50;99.90;;;2.33;100.00;100615.91;4995698;28;20248;-75
2022/12/03 09:23:32;;;;;;;0.10;0.10;;;2.50;99.90;;;2.30;100.00;100609.66;4993736;28;20724;-74
2022/12/03 09:25:59;;;;;;;0.10;0.10;;;2.50;99.90;;;2.26;100.00;100613.84;5005597;28;20283;-76
2022/12/03 09:28:26;;;;;;;0.10;0.10;;;2.50;99.90;;;2.28;100.00;100606.06;5011584;28;20638;-75
2022/12/03 09:30:53;;;;;;;0.10;0.10;;;2.50;99.90;;;2.38;100.00;100616.09;5008707;28;20254;-75
2022/12/03 09:33:20;;;;;;;0.17;0.17;;;2.80;99.90;;;2.40;100.00;100617.06;4998561;28;20291;-74
2022/12/03 09:35:47;;;;;;;0.10;0.10;;;2.50;99.90;;;2.46;100.00;100626.06;5008614;28;20230;-74
2022/12/03 09:38:17;;;;;;;0.10;0.10;;;2.60;99.90;;;2.49;100.00;100627.91;4993452;28;20259;-75
2022/12/03 09:40:55;;;;;;;0.10;0.10;;;2.70;99.90;;;2.57;100.00;100634.34;4990473;28;20220;-72
2022/12/03 09:43:22;;;;;;;0.17;0.17;;;2.70;99.90;;;2.67;100.00;100639.19;4970794;28;20308;-69
2022/12/03 09:45:52;;;;;;;0.40;0.40;;;2.80;99.90;;;2.61;100.00;100627.59;4961493;28;20298;-70
2022/12/03 09:48:20;;;;;;;0.20;0.20;;;2.80;99.90;;;2.59;100.00;100619.66;4970510;28;20327;-70
2022/12/03 09:50:48;;;;;;;0.10;0.10;;;2.80;99.90;;;2.80;100.00;100622.34;4951769;28;20227;-71
2022/12/03 09:53:20;;;;;;;0.55;0.55;;;2.90;99.90;;;2.76;100.00;100617.81;5007112;28;20232;-70
2022/12/03 09:55:49;;;;;;;0.10;0.10;;;2.90;99.90;;;2.90;100.00;100627.13;4982157;28;20259;-70
2022/12/03 09:58:18;;;;;;;0.10;0.10;;;3.00;99.90;;;2.87;100.00;100617.44;4956333;28;20970;-70
2022/12/03 10:00:49;;;;;;;1.02;1.02;;;3.00;99.90;;;3.00;100.00;100616.22;4963869;28;20236;-71
2022/12/03 10:03:23;;;;;;;0.10;0.10;;;3.10;99.90;;;2.77;100.00;100588.25;4973292;28;20240;-70
2022/12/03 10:05:55;;;;;;;0.15;0.15;;;3.00;99.90;;;2.89;100.00;100596.59;4954835;28;20236;-70
2022/12/03 10:08:29;;;;;;;0.10;0.10;;;3.00;99.90;;;2.85;100.00;100592.97;4961457;28;20232;-71
2022/12/03 10:10:58;;;;;;;0.17;0.17;;;3.00;99.90;;;3.11;100.00;100614.06;4972826;28;20231;-70
2022/12/03 10:13:29;;;;;;;2.13;0.82;;;3.10;99.90;;;3.15;100.00;100605.53;4951782;28;20318;-71
2022/12/03 10:15:59;;;;;;;0.10;0.10;;;3.30;99.90;;;3.11;100.00;100591.44;4965447;28;20236;-70
2022/12/03 10:18:33;;;;;;;0.25;0.25;;;3.30;99.90;;;3.15;100.00;100593.34;4978245;28;20293;-70
2022/12/03 10:21:31;;;;;;;0.40;0.40;;;3.30;99.90;;;3.07;100.00;100591.25;4966012;28;20232;-70
2022/12/03 10:24:17;;;;;;;0.10;0.10;;;3.30;99.90;;;3.17;100.00;100590.81;4971939;28;20325;-70
2022/12/03 10:26:46;;;;;;;0.30;0.30;;;3.30;99.90;;;3.17;100.00;100575.13;4966216;28;20271;-70
2022/12/03 10:29:18;;;;;;;0.10;0.10;;;3.30;99.90;;;3.22;100.00;100571.88;4965508;28;20323;-70
2022/12/03 10:31:54;;;;;;;0.25;0.25;;;3.40;99.90;;;3.31;100.00;100581.81;4961172;28;20344;-70
2022/12/03 10:34:34;;;;;;;0.10;0.10;;;3.50;99.90;;;3.29;100.00;100565.16;4956034;28;20569;-70
2022/12/03 10:37:21;;;;;;;0.10;0.10;;;3.50;99.90;;;3.49;100.00;100579.91;4978911;28;20252;-70
2022/12/03 10:39:53;;;;;;;0.10;0.10;;;3.70;99.90;;;3.40;100.00;100568.22;4978135;28;20306;-70
2022/12/03 10:42:26;;;;;;;0.60;0.57;;;3.60;99.90;;;3.42;100.00;100562.22;4966870;28;20243;-69
2022/12/03 10:45:16;;;;;;;0.10;0.10;;;3.60;99.90;;;3.51;100.00;100564.28;4983632;28;20318;-70
2022/12/03 10:48:12;;;;;;;0.10;0.10;;;3.70;99.90;;;3.37;100.00;100544.56;4979913;28;20310;-71
2022/12/03 10:51:01;;;;;;;0.10;0.10;;;3.60;99.90;;;3.35;100.00;100536.66;4959852;28;20255;-71